Time;durP1;ratioP1;P1;durP2;ratioP2;P2;SDS_P1;SDS_P2;PMS_P1;PMS_P2;Temp;Humidity;BMP_temperature;BMP_pressure;BME280_temperature;BME280_humidity;BME280_pressure;Samples;Min_cycle;Max_cycle;Signal;HPM_P1;HPM_P2
2021/11/27 00:01:43;;;;;;;46.67;25.08;;;5.70;99.90;;;;;;5099378;28;20031;-82
2021/11/27 00:04:10;;;;;;;42.05;23.52;;;5.60;99.90;;;;;;5117511;28;20030;-81
2021/11/27 00:06:36;;;;;;;45.97;23.08;;;5.70;99.90;;;;;;5099091;28;20031;-81
2021/11/27 00:09:04;;;;;;;46.50;24.10;;;5.70;99.90;;;;;;5099258;28;20118;-81
2021/11/27 00:11:30;;;;;;;40.53;21.90;;;5.70;99.90;;;;;;5099421;28;20034;-80
2021/11/27 00:13:56;;;;;;;48.60;24.98;;;5.80;99.90;;;;;;5098650;28;20044;-81
2021/11/27 00:16:23;;;;;;;42.47;22.80;;;5.70;99.90;;;;;;5099099;28;20019;-81
2021/11/27 00:18:49;;;;;;;51.85;24.05;;;5.70;99.90;;;;;;5099836;28;20027;-81
2021/11/27 00:21:20;;;;;;;43.53;24.48;;;5.70;99.90;;;;;;5098874;28;20118;-81
2021/11/27 00:23:47;;;;;;;46.45;24.35;;;5.70;99.90;;;;;;5098969;28;20123;-82
2021/11/27 00:26:15;;;;;;;45.08;22.70;;;5.80;99.90;;;;;;5117098;28;20062;-82
2021/11/27 00:28:42;;;;;;;43.35;23.48;;;5.80;99.90;;;;;;5098738;28;20030;-81
2021/11/27 00:31:12;;;;;;;50.83;26.05;;;5.80;99.90;;;;;;5098769;28;20023;-81
2021/11/27 00:33:39;;;;;;;48.97;26.58;;;5.80;99.90;;;;;;5116286;28;20024;-81
2021/11/27 00:36:05;;;;;;;47.15;24.52;;;5.80;99.90;;;;;;5098568;28;20478;-81
2021/11/27 00:38:31;;;;;;;50.25;26.38;;;5.80;99.90;;;;;;5098641;28;20039;-81
2021/11/27 00:40:58;;;;;;;59.75;29.60;;;5.80;99.90;;;;;;5098588;28;20024;-82
2021/11/27 00:43:24;;;;;;;56.13;28.05;;;5.70;99.90;;;;;;5098251;28;20430;-82
2021/11/27 00:45:50;;;;;;;84.25;32.33;;;5.70;99.90;;;;;;5116246;28;20031;-83
2021/11/27 00:48:18;;;;;;;55.53;29.13;;;5.70;99.90;;;;;;5098006;28;20020;-81
2021/11/27 00:50:49;;;;;;;58.03;29.17;;;5.70;99.90;;;;;;5116641;28;20102;-81
2021/11/27 00:53:15;;;;;;;58.78;28.52;;;5.70;99.90;;;;;;5116521;28;20029;-81
2021/11/27 00:55:41;;;;;;;59.65;28.45;;;5.70;99.90;;;;;;5098309;28;20019;-81
2021/11/27 00:58:07;;;;;;;62.15;31.45;;;5.80;99.90;;;;;;5097879;28;20016;-82
2021/11/27 01:00:38;;;;;;;60.35;29.42;;;5.80;99.90;;;;;;5116549;28;20040;-83
2021/11/27 01:03:06;;;;;;;58.55;28.65;;;5.80;99.90;;;;;;5098192;28;20428;-81
2021/11/27 01:05:33;;;;;;;66.85;32.97;;;5.80;99.90;;;;;;5116407;28;20023;-81
2021/11/27 01:08:00;;;;;;;70.38;33.63;;;5.80;99.90;;;;;;5097994;28;20023;-80
2021/11/27 01:10:29;;;;;;;78.82;36.72;;;5.90;99.90;;;;;;5097776;28;20024;-80
2021/11/27 01:12:55;;;;;;;70.93;34.13;;;5.80;99.90;;;;;;5097532;28;20032;-81
2021/11/27 01:15:28;;;;;;;71.85;36.95;;;5.80;99.90;;;;;;5097792;28;20440;-81
2021/11/27 01:17:55;;;;;;;84.95;41.03;;;5.80;99.90;;;;;;5097878;28;20047;-81
2021/11/27 01:20:24;;;;;;;88.35;44.83;;;5.80;99.90;;;;;;5116088;28;20070;-81
2021/11/27 01:22:50;;;;;;;140.95;78.53;;;5.70;99.90;;;;;;5097808;28;20465;-81
2021/11/27 01:25:16;;;;;;;106.28;51.95;;;5.70;99.90;;;;;;5097711;28;20173;-81
2021/11/27 01:27:42;;;;;;;83.85;40.38;;;5.70;99.90;;;;;;5097660;28;20389;-81
2021/11/27 01:30:10;;;;;;;81.28;37.78;;;5.70;99.90;;;;;;5115812;28;20024;-82
2021/11/27 01:32:36;;;;;;;83.07;39.00;;;5.70;99.90;;;;;;5097577;28;20042;-81
2021/11/27 01:35:03;;;;;;;95.10;45.15;;;5.70;99.90;;;;;;5097276;28;20023;-81
2021/11/27 01:37:29;;;;;;;79.25;34.80;;;5.70;99.90;;;;;;5097541;28;20019;-81
2021/11/27 01:39:55;;;;;;;81.57;35.60;;;5.60;99.90;;;;;;5115683;28;20106;-80
2021/11/27 01:42:21;;;;;;;83.90;36.33;;;5.60;99.90;;;;;;5097367;28;20024;-81
2021/11/27 01:44:46;;;;;;;87.45;37.65;;;5.60;99.90;;;;;;5115333;28;20080;-81
2021/11/27 01:47:12;;;;;;;81.70;36.45;;;5.60;99.90;;;;;;5097224;28;20039;-81
2021/11/27 01:49:38;;;;;;;87.07;36.65;;;5.60;99.90;;;;;;5115463;28;20051;-81
2021/11/27 01:52:05;;;;;;;89.22;37.78;;;5.60;99.90;;;;;;5115720;28;20478;-83
2021/11/27 01:54:31;;;;;;;92.28;38.40;;;5.60;99.90;;;;;;5097023;28;20028;-81
2021/11/27 01:57:01;;;;;;;97.97;39.88;;;5.60;99.90;;;;;;5097056;28;20102;-81
2021/11/27 01:59:29;;;;;;;98.18;39.13;;;5.60;99.90;;;;;;5096043;28;20016;-82
2021/11/27 02:01:56;;;;;;;97.13;38.92;;;5.60;99.90;;;;;;5096642;28;20027;-84
2021/11/27 02:04:22;;;;;;;99.97;39.30;;;5.60;99.90;;;;;;5115519;28;20053;-81
2021/11/27 02:06:48;;;;;;;107.95;42.00;;;5.60;99.90;;;;;;5097208;28;20071;-81
2021/11/27 02:09:28;;;;;;;101.60;41.13;;;5.60;99.90;;;;;;5096899;28;20031;-81
2021/11/27 02:11:56;;;;;;;104.50;40.70;;;5.60;99.90;;;;;;5096835;28;20474;-82
2021/11/27 02:14:21;;;;;;;111.10;43.80;;;5.70;99.90;;;;;;5096451;28;20481;-81
2021/11/27 02:16:49;;;;;;;100.60;40.33;;;5.70;99.90;;;;;;5114646;28;20157;-82
2021/11/27 02:19:16;;;;;;;99.95;41.40;;;5.70;99.90;;;;;;5096604;28;20028;-82
2021/11/27 02:21:44;;;;;;;90.97;38.05;;;5.70;99.90;;;;;;5114931;28;20043;-82
2021/11/27 02:24:12;;;;;;;95.25;39.17;;;5.70;99.90;;;;;;5096676;28;20028;-82
2021/11/27 02:26:38;;;;;;;91.63;38.42;;;5.70;99.90;;;;;;5096499;28;20027;-81
2021/11/27 02:29:10;;;;;;;95.45;39.67;;;5.70;99.90;;;;;;5096488;28;20096;-81
2021/11/27 02:31:37;;;;;;;109.05;41.05;;;5.70;99.90;;;;;;5096281;28;20450;-82
2021/11/27 02:34:04;;;;;;;90.88;38.58;;;5.70;99.90;;;;;;5096397;28;20474;-81
2021/11/27 02:36:31;;;;;;;93.30;38.72;;;5.70;99.90;;;;;;5114653;28;20026;-82
2021/11/27 02:38:58;;;;;;;87.72;37.65;;;5.80;99.90;;;;;;5096333;28;20015;-82
2021/11/27 02:41:24;;;;;;;95.07;36.45;;;5.80;99.90;;;;;;5114187;28;20081;-81
2021/11/27 02:43:51;;;;;;;86.05;36.35;;;5.80;99.90;;;;;;5114482;28;20019;-82
2021/11/27 02:46:16;;;;;;;77.25;34.38;;;5.80;99.90;;;;;;5095995;28;20432;-81
2021/11/27 02:48:42;;;;;;;72.15;31.60;;;5.90;99.90;;;;;;5114691;28;20028;-81
2021/11/27 02:51:09;;;;;;;77.20;33.15;;;5.90;99.90;;;;;;5114669;28;20075;-82
2021/11/27 02:53:35;;;;;;;80.20;33.55;;;5.90;99.90;;;;;;5114217;28;20521;-82
2021/11/27 02:56:02;;;;;;;77.10;32.75;;;6.00;99.90;;;;;;5096066;28;20024;-82
2021/11/27 02:58:28;;;;;;;71.63;30.63;;;6.00;99.90;;;;;;5095988;28;20023;-82
2021/11/27 03:00:57;;;;;;;74.93;30.25;;;6.00;99.90;;;;;;5114043;28;20627;-82
2021/11/27 03:03:24;;;;;;;71.13;30.38;;;6.00;99.90;;;;;;5096009;28;20030;-81
2021/11/27 03:05:50;;;;;;;77.30;31.02;;;6.10;99.90;;;;;;5114231;28;20558;-82
2021/11/27 03:08:17;;;;;;;70.82;28.80;;;6.10;99.90;;;;;;5114102;28;20047;-82
2021/11/27 03:10:44;;;;;;;67.28;28.75;;;6.10;99.90;;;;;;5095684;28;20017;-82
2021/11/27 03:13:10;;;;;;;67.15;29.67;;;6.20;99.90;;;;;;5114118;28;20066;-82
2021/11/27 03:15:41;;;;;;;60.15;26.63;;;6.20;99.90;;;;;;5095800;28;20055;-83
2021/11/27 03:18:08;;;;;;;53.95;25.17;;;6.20;99.90;;;;;;5095607;28;20028;-82
2021/11/27 03:20:34;;;;;;;53.60;24.65;;;6.30;99.90;;;;;;5095885;28;20484;-83
2021/11/27 03:23:00;;;;;;;52.53;23.63;;;6.30;99.90;;;;;;5095915;28;20063;-83
2021/11/27 03:25:26;;;;;;;56.10;22.00;;;6.30;99.90;;;;;;5095988;28;20054;-82
2021/11/27 03:27:52;;;;;;;42.65;20.55;;;6.40;99.90;;;;;;5114000;28;20048;-83
2021/11/27 03:30:19;;;;;;;47.67;20.88;;;6.40;99.90;;;;;;5113969;28;20024;-82
2021/11/27 03:32:46;;;;;;;41.15;18.75;;;6.40;99.90;;;;;;5095386;28;20034;-83
2021/11/27 03:35:13;;;;;;;43.08;17.95;;;6.50;99.90;;;;;;5095650;28;20059;-82
2021/11/27 03:37:40;;;;;;;31.67;16.27;;;6.60;99.90;;;;;;5113886;28;20043;-82
2021/11/27 03:40:07;;;;;;;30.30;15.10;;;6.60;99.90;;;;;;5114135;28;20059;-82
2021/11/27 03:42:33;;;;;;;27.98;13.63;;;6.60;99.90;;;;;;5113837;28;20020;-82
2021/11/27 03:45:00;;;;;;;25.13;13.43;;;6.70;99.90;;;;;;5095591;28;20092;-81
2021/11/27 03:47:25;;;;;;;23.58;13.23;;;6.70;99.90;;;;;;5095041;28;20028;-82
2021/11/27 03:49:53;;;;;;;21.45;11.75;;;6.70;99.90;;;;;;5095239;28;20385;-82
2021/11/27 03:52:19;;;;;;;22.10;11.48;;;6.80;99.90;;;;;;5095516;28;20023;-82
2021/11/27 03:54:46;;;;;;;22.00;12.18;;;6.80;99.90;;;;;;5095303;28;20036;-82
2021/11/27 03:57:12;;;;;;;21.00;11.50;;;6.80;99.90;;;;;;5113999;28;20090;-81
2021/11/27 03:59:38;;;;;;;18.98;11.02;;;6.80;99.90;;;;;;5113621;28;20542;-82
2021/11/27 04:02:05;;;;;;;17.63;10.65;;;6.80;99.90;;;;;;5095445;28;20034;-82
2021/11/27 04:04:31;;;;;;;19.10;10.43;;;6.80;99.90;;;;;;5113348;28;20020;-82
2021/11/27 04:06:57;;;;;;;19.83;10.88;;;6.90;99.90;;;;;;5113974;28;20035;-83
2021/11/27 04:09:23;;;;;;;16.85;9.50;;;6.90;99.90;;;;;;5113606;28;20024;-82
2021/11/27 04:11:49;;;;;;;15.05;9.45;;;6.90;99.90;;;;;;5095364;28;20030;-82
2021/11/27 04:14:15;;;;;;;17.05;9.40;;;7.00;99.90;;;;;;5078917;28;20052;-82
2021/11/27 04:16:41;;;;;;;15.98;9.52;;;6.90;99.90;;;;;;5071688;28;20025;-82
2021/11/27 04:19:07;;;;;;;15.88;9.75;;;6.90;99.90;;;;;;5071680;28;20485;-82
2021/11/27 04:21:33;;;;;;;16.23;9.77;;;7.00;99.90;;;;;;5074521;28;20027;-82
2021/11/27 04:23:58;;;;;;;17.92;8.32;;;7.00;99.90;;;;;;5076855;28;20054;-82
2021/11/27 04:26:24;;;;;;;13.65;8.25;;;7.00;99.90;;;;;;5075142;28;20071;-82
2021/11/27 04:28:53;;;;;;;16.17;8.52;;;7.00;99.90;;;;;;5075411;28;20035;-82
2021/11/27 04:31:19;;;;;;;12.30;7.82;;;7.00;99.90;;;;;;5076086;28;20028;-82
2021/11/27 04:33:49;;;;;;;25.30;9.25;;;7.00;99.90;;;;;;5074927;28;20036;-82
2021/11/27 04:36:15;;;;;;;14.65;8.93;;;7.00;99.90;;;;;;5074719;28;20029;-81
2021/11/27 04:38:41;;;;;;;13.30;8.00;;;7.00;99.90;;;;;;5075004;28;20048;-82
2021/11/27 04:41:07;;;;;;;15.10;8.07;;;7.10;99.90;;;;;;5074856;28;20020;-82
2021/11/27 04:43:33;;;;;;;15.18;8.98;;;7.00;99.90;;;;;;5074881;28;20429;-81
2021/11/27 04:45:59;;;;;;;13.80;9.43;;;7.00;99.90;;;;;;5075793;28;20060;-81
2021/11/27 04:48:25;;;;;;;14.20;11.00;;;7.00;99.90;;;;;;5074650;28;20070;-83
2021/11/27 04:50:51;;;;;;;14.45;10.40;;;7.10;99.90;;;;;;5075048;28;20054;-82
2021/11/27 04:53:16;;;;;;;17.90;12.43;;;7.10;99.90;;;;;;5076248;28;20021;-82
2021/11/27 04:55:43;;;;;;;22.33;13.48;;;7.10;99.90;;;;;;5075939;28;20463;-82
2021/11/27 04:58:09;;;;;;;23.40;12.70;;;7.20;99.90;;;;;;5074622;28;20044;-81
2021/11/27 05:00:44;;;;;;;21.27;14.27;;;7.20;99.90;;;;;;5074083;28;20039;-81
2021/11/27 05:03:10;;;;;;;25.95;13.38;;;7.20;99.90;;;;;;5074619;28;20059;-81
2021/11/27 05:05:36;;;;;;;31.25;16.00;;;7.20;99.90;;;;;;5074541;28;20048;-82
2021/11/27 05:08:03;;;;;;;58.75;18.48;;;7.20;99.90;;;;;;5074403;28;20020;-81
2021/11/27 05:10:29;;;;;;;51.45;15.82;;;7.30;99.90;;;;;;5075686;28;20077;-81
2021/11/27 05:12:55;;;;;;;104.40;28.63;;;7.30;99.90;;;;;;5076596;28;20474;-82
2021/11/27 05:15:21;;;;;;;116.55;28.83;;;7.30;99.90;;;;;;5097728;28;20481;-81
2021/11/27 05:17:47;;;;;;;171.80;36.47;;;7.40;99.90;;;;;;5116195;28;20065;-82
2021/11/27 05:20:13;;;;;;;185.93;37.65;;;7.40;99.90;;;;;;5116028;28;20052;-81
2021/11/27 05:22:39;;;;;;;218.95;45.63;;;7.40;99.90;;;;;;5097832;28;20019;-81
2021/11/27 05:25:06;;;;;;;273.25;54.72;;;7.40;99.90;;;;;;5116017;28;20047;-82
2021/11/27 05:27:33;;;;;;;265.55;54.20;;;7.40;99.90;;;;;;5116016;28;20020;-81
2021/11/27 05:29:59;;;;;;;273.65;51.58;;;7.50;99.90;;;;;;5115865;28;20016;-81
2021/11/27 05:35:00;;;;;;;239.85;52.00;;;7.50;99.90;;;;;;5116105;28;20035;-82
2021/11/27 05:37:26;;;;;;;274.05;54.72;;;7.40;99.90;;;;;;5115721;28;20103;-82
2021/11/27 05:39:52;;;;;;;279.17;56.70;;;7.50;99.90;;;;;;5097436;28;20470;-82
2021/11/27 05:42:18;;;;;;;316.52;62.63;;;7.40;99.90;;;;;;5097461;28;20073;-81
2021/11/27 05:44:45;;;;;;;294.27;61.42;;;7.50;99.90;;;;;;5097279;28;20114;-83
2021/11/27 05:47:12;;;;;;;266.13;54.65;;;7.50;99.90;;;;;;5097392;28;20030;-83
2021/11/27 05:49:38;;;;;;;236.98;50.30;;;7.50;99.90;;;;;;5115111;28;20089;-83
2021/11/27 05:52:05;;;;;;;167.88;35.45;;;7.50;99.90;;;;;;5115501;28;20031;-82
2021/11/27 05:54:31;;;;;;;147.05;32.88;;;7.60;99.90;;;;;;5097128;28;20030;-83
2021/11/27 05:56:57;;;;;;;102.32;26.27;;;7.50;99.90;;;;;;5097180;28;20042;-82
2021/11/27 05:59:22;;;;;;;89.00;25.63;;;7.60;99.90;;;;;;5097098;28;20489;-82
2021/11/27 06:01:48;;;;;;;88.13;27.15;;;7.60;99.90;;;;;;5097115;28;20020;-82
2021/11/27 06:04:14;;;;;;;91.38;25.05;;;7.70;99.90;;;;;;5096605;28;20027;-83
2021/11/27 06:06:40;;;;;;;54.25;20.70;;;7.70;99.90;;;;;;5096988;28;20076;-82
2021/11/27 06:09:06;;;;;;;51.42;18.48;;;7.70;99.90;;;;;;5096607;28;20024;-83
2021/11/27 06:11:31;;;;;;;42.20;17.42;;;7.70;99.90;;;;;;5096933;28;20496;-83
2021/11/27 06:13:57;;;;;;;35.67;17.48;;;7.70;99.90;;;;;;5096456;28;20058;-82
2021/11/27 06:16:23;;;;;;;47.50;18.90;;;7.70;99.90;;;;;;5113734;28;20016;-83
2021/11/27 06:18:51;;;;;;;55.42;19.15;;;7.70;99.90;;;;;;5096669;28;20122;-83
2021/11/27 06:21:20;;;;;;;67.30;21.27;;;7.80;99.90;;;;;;5096765;28;20027;-83
2021/11/27 06:23:51;;;;;;;77.95;24.45;;;7.80;99.90;;;;;;5096547;28;20062;-82
2021/11/27 06:26:17;;;;;;;73.93;26.02;;;7.80;99.90;;;;;;5096263;28;20118;-83
2021/11/27 06:28:43;;;;;;;46.80;24.27;;;7.80;99.90;;;;;;5096610;28;20029;-85
2021/11/27 06:31:09;;;;;;;36.40;19.10;;;7.80;99.90;;;;;;5096455;28;20030;-82
2021/11/27 06:33:35;;;;;;;34.95;21.20;;;7.90;99.90;;;;;;5096348;28;20432;-83
2021/11/27 06:36:01;;;;;;;39.15;21.05;;;7.80;99.90;;;;;;5096407;28;20381;-83
2021/11/27 06:38:27;;;;;;;52.05;20.23;;;7.90;99.90;;;;;;5096498;28;20110;-84
2021/11/27 06:40:53;;;;;;;55.60;23.40;;;7.90;99.90;;;;;;5114853;28;20077;-83
2021/11/27 06:43:19;;;;;;;70.82;28.80;;;7.90;99.90;;;;;;5114741;28;20058;-83
2021/11/27 06:45:45;;;;;;;75.05;26.83;;;7.90;99.90;;;;;;5113363;28;20462;-84
2021/11/27 06:48:10;;;;;;;59.42;29.10;;;8.00;99.90;;;;;;5114403;28;20094;-84
2021/11/27 06:50:36;;;;;;;43.85;26.15;;;7.90;99.90;;;;;;5095903;28;20390;-84
2021/11/27 06:53:03;;;;;;;40.20;28.98;;;8.00;99.90;;;;;;5114421;28;20058;-84
2021/11/27 06:55:29;;;;;;;43.72;32.40;;;8.00;99.90;;;;;;5114215;28;20028;-84
2021/11/27 06:57:54;;;;;;;44.60;35.92;;;8.00;99.90;;;;;;5114331;28;20042;-84
2021/11/27 07:00:27;;;;;;;46.80;35.67;;;8.10;99.90;;;;;;5114139;28;20027;-84
2021/11/27 07:02:53;;;;;;;45.35;34.38;;;8.20;99.90;;;;;;5096063;28;20028;-84
2021/11/27 07:05:18;;;;;;;42.25;32.38;;;8.20;99.90;;;;;;5096007;28;20164;-83
2021/11/27 07:07:44;;;;;;;39.60;30.38;;;8.30;99.90;;;;;;5095932;28;20396;-84
2021/11/27 07:10:10;;;;;;;40.05;29.35;;;8.30;99.90;;;;;;5114037;28;20496;-85
2021/11/27 07:12:36;;;;;;;43.20;29.40;;;8.30;99.90;;;;;;5114226;28;20028;-84
2021/11/27 07:15:03;;;;;;;43.65;25.75;;;8.30;99.90;;;;;;5095211;28;20052;-84
2021/11/27 07:17:30;;;;;;;34.83;21.77;;;8.30;99.90;;;;;;5095833;28;20026;-84
2021/11/27 07:19:57;;;;;;;45.72;21.23;;;8.30;99.90;;;;;;5095815;28;20381;-84
2021/11/27 07:22:23;;;;;;;65.78;27.00;;;8.30;99.90;;;;;;5114124;28;20026;-84
2021/11/27 07:24:49;;;;;;;102.57;31.83;;;8.30;99.90;;;;;;5095766;28;20035;-85
2021/11/27 07:27:15;;;;;;;167.55;42.78;;;8.30;99.90;;;;;;5114174;28;20028;-85
2021/11/27 07:29:41;;;;;;;219.35;50.75;;;8.30;99.90;;;;;;5113784;28;20077;-85
2021/11/27 07:32:07;;;;;;;219.27;49.72;;;8.40;99.90;;;;;;5114351;28;20041;-85
2021/11/27 07:34:34;;;;;;;218.27;49.17;;;8.30;99.90;;;;;;5095806;28;20051;-86
2021/11/27 07:37:00;;;;;;;212.98;48.28;;;8.40;99.90;;;;;;5114050;28;20031;-85
2021/11/27 07:39:26;;;;;;;195.82;48.88;;;8.40;99.90;;;;;;5095218;28;20028;-86
2021/11/27 07:41:52;;;;;;;190.93;48.22;;;8.50;99.90;;;;;;5114281;28;20019;-85
2021/11/27 07:44:18;;;;;;;138.80;41.15;;;8.50;99.90;;;;;;5094773;28;20542;-86
2021/11/27 07:46:47;;;;;;;73.70;38.97;;;8.50;99.90;;;;;;5095269;28;20156;-85
2021/11/27 07:49:13;;;;;;;63.05;37.88;;;8.60;99.90;;;;;;5094679;28;20028;-88
2021/11/27 07:51:39;;;;;;;61.65;36.10;;;8.60;99.90;;;;;;5096105;28;20028;-89
2021/11/27 15:39:34;;;;;;;95.18;59.35;;;7.70;99.90;;;;;;5111812;28;20410;-95
2021/11/27 15:42:07;;;;;;;94.82;56.53;;;8.20;99.90;;;;;;5306959;22;20068;-93
2021/11/27 15:44:36;;;;;;;81.00;51.03;;;8.20;99.90;;;;;;5008446;28;20102;-93
2021/11/27 15:47:25;;;;;;;90.80;53.22;;;8.10;99.90;;;;;;4994351;28;20031;-94
2021/11/27 15:49:56;;;;;;;73.25;46.45;;;8.20;99.90;;;;;;5005629;28;20169;-93
2021/11/27 15:52:31;;;;;;;81.78;48.05;;;8.20;99.90;;;;;;5008597;28;20033;-92
2021/11/27 15:55:01;;;;;;;116.13;69.78;;;8.30;99.90;;;;;;5013555;28;20037;-96
2021/11/27 15:57:28;;;;;;;79.68;48.35;;;8.20;99.90;;;;;;5011738;28;20010;-94
2021/11/27 16:02:52;;;;;;;87.05;57.25;;;8.30;99.90;;;;;;5728145;23;20066;-94
2021/11/27 16:05:19;;;;;;;87.10;60.25;;;8.30;99.90;;;;;;5015704;28;20030;-94
2021/11/27 16:15:35;;;;;;;69.53;45.83;;;8.30;99.90;;;;;;5252242;23;20078;-92
2021/11/27 16:18:00;;;;;;;58.38;37.80;;;8.30;99.90;;;;;;5035996;28;20012;-94
2021/11/27 16:23:02;;;;;;;55.58;35.15;;;8.30;99.90;;;;;;5829237;23;20030;-95
2021/11/27 16:30:41;;;;;;;55.97;33.95;;;8.20;99.90;;;;;;5727691;23;20073;-96
2021/11/27 16:33:22;;;;;;;54.45;33.92;;;8.20;99.90;;;;;;5553548;23;20063;-95
2021/11/27 16:35:49;;;;;;;55.33;34.88;;;8.20;99.90;;;;;;5136606;23;20054;-91
2021/11/27 16:55:32;;;;;;;106.30;66.18;;;7.90;99.90;;;;;;5467586;23;20081;-94
2021/11/27 16:58:01;;;;;;;98.28;56.90;;;7.90;99.90;;;;;;4975964;28;20014;-92
2021/11/27 17:25:29;;;;;;;80.63;44.60;;;7.70;99.90;;;;;;5835541;23;20023;-96
2021/11/27 17:36:05;;;;;;;97.15;51.25;;;7.60;99.90;;;;;;5567785;23;20061;-96
2021/11/27 17:46:18;;;;;;;82.68;46.30;;;7.50;99.90;;;;;;4977437;28;20071;-94
2021/11/27 17:48:45;;;;;;;94.75;51.00;;;7.50;99.90;;;;;;4940825;29;20122;-94
2021/11/27 17:51:12;;;;;;;128.70;69.85;;;7.50;99.90;;;;;;4933872;29;20050;-94
2021/11/27 17:56:18;;;;;;;92.45;52.17;;;7.60;99.90;;;;;;5011823;23;20058;-91
2021/11/27 17:58:48;;;;;;;228.20;164.32;;;7.60;99.90;;;;;;5066318;23;20058;-96
2021/11/27 18:01:15;;;;;;;96.50;58.10;;;7.60;99.90;;;;;;4979876;28;20025;-95
2021/11/27 18:06:23;;;;;;;79.55;46.08;;;7.60;99.90;;;;;;5496015;23;20512;-92
2021/11/27 18:08:49;;;;;;;89.57;48.17;;;7.60;99.90;;;;;;4965038;28;20164;-93
2021/11/27 18:11:15;;;;;;;85.35;47.55;;;7.50;99.90;;;;;;4965047;28;20035;-92
2021/11/27 18:13:42;;;;;;;89.43;47.55;;;7.50;99.90;;;;;;4963967;28;20035;-94
2021/11/27 18:16:08;;;;;;;83.80;45.97;;;7.50;99.90;;;;;;4966963;28;20022;-91
2021/11/27 18:18:34;;;;;;;96.60;49.65;;;7.50;99.90;;;;;;4961041;28;20034;-92
2021/11/27 18:21:15;;;;;;;91.03;49.75;;;7.50;99.90;;;;;;4961414;28;20053;-91
2021/11/27 18:23:43;;;;;;;;;;;7.50;99.90;;;;;;4962440;28;20031;-91
2021/11/27 18:28:35;;;;;;;101.35;55.10;;;7.40;99.90;;;;;;4984165;28;20073;-92
2021/11/27 18:31:02;;;;;;;103.30;56.63;;;7.40;99.90;;;;;;4965759;28;20018;-91
2021/11/27 18:33:30;;;;;;;87.68;53.35;;;7.40;99.90;;;;;;4967859;28;20027;-96
2021/11/27 18:36:03;;;;;;;107.93;57.53;;;7.40;99.90;;;;;;4967408;28;20054;-95
2021/11/27 18:38:30;;;;;;;99.03;57.95;;;7.40;99.90;;;;;;4969043;28;20030;-94
2021/11/27 18:40:56;;;;;;;167.25;69.15;;;7.40;99.90;;;;;;4963482;28;20508;-91
2021/11/27 18:43:22;;;;;;;141.63;61.75;;;7.50;99.90;;;;;;4965639;28;20031;-94
2021/11/27 18:45:48;;;;;;;124.45;58.03;;;7.40;99.90;;;;;;4966782;28;20073;-93
2021/11/27 18:59:36;;;;;;;178.18;62.03;;;7.20;99.90;;;;;;4968994;28;20054;-94
2021/11/27 19:02:04;;;;;;;110.35;54.63;;;7.10;99.90;;;;;;4947830;29;20117;-96
2021/11/27 19:04:35;;;;;;;131.30;58.15;;;7.00;99.90;;;;;;4936230;29;20031;-95
2021/11/27 19:07:01;;;;;;;146.50;60.15;;;7.00;99.90;;;;;;4949739;29;20110;-94
2021/11/27 19:09:27;;;;;;;120.60;57.25;;;6.90;99.90;;;;;;4947877;29;20084;-94
2021/11/27 19:11:53;;;;;;;122.65;55.40;;;6.90;99.90;;;;;;4943905;29;20020;-94
2021/11/27 19:14:25;;;;;;;150.20;60.78;;;6.80;99.90;;;;;;4943822;29;20035;-94
2021/11/27 19:16:53;;;;;;;209.75;63.63;;;6.80;99.90;;;;;;4949242;29;20034;-94
2021/11/27 19:19:19;;;;;;;112.32;54.08;;;6.70;99.90;;;;;;4961870;28;20035;-94
2021/11/27 19:21:45;;;;;;;202.85;65.55;;;6.60;99.90;;;;;;4945828;29;20582;-94
2021/11/27 19:26:52;;;;;;;141.75;59.50;;;6.50;99.90;;;;;;5011467;23;20066;-95
2021/11/27 19:29:23;;;;;;;179.10;64.95;;;6.50;99.90;;;;;;4977695;28;20027;-95
2021/11/27 19:32:03;;;;;;;168.05;61.97;;;6.40;99.90;;;;;;5035261;23;20100;-96
2021/11/27 19:39:35;;;;;;;171.32;68.90;;;6.30;99.90;;;;;;4971772;28;20066;-94
2021/11/27 19:42:02;;;;;;;143.30;64.65;;;6.20;99.90;;;;;;4970862;29;20054;-93
2021/11/27 19:44:27;;;;;;;120.35;58.83;;;6.20;99.90;;;;;;4946373;29;20032;-92
2021/11/27 19:46:54;;;;;;;147.30;62.70;;;6.20;99.90;;;;;;4968224;28;20047;-94
2021/11/27 19:49:25;;;;;;;185.27;83.20;;;6.20;99.90;;;;;;4956019;29;20039;-95
2021/11/27 19:52:08;;;;;;;147.10;68.43;;;6.20;99.90;;;;;;5002968;23;20038;-93
2021/11/27 19:54:35;;;;;;;238.43;82.35;;;6.30;99.90;;;;;;4898399;29;20071;-91
2021/11/27 19:57:01;;;;;;;191.30;84.82;;;6.30;99.90;;;;;;4913423;29;20031;-94
2021/11/27 20:10:19;;;;;;;186.50;81.70;;;6.10;99.90;;;;;;6011393;23;21135;-91
2021/11/27 20:12:45;;;;;;;131.73;66.40;;;6.10;99.90;;;;;;4945895;28;20134;-94
2021/11/27 20:15:13;;;;;;;242.88;87.25;;;6.00;99.90;;;;;;4945269;29;20024;-93
2021/11/27 20:17:39;;;;;;;299.80;96.63;;;5.90;99.90;;;;;;4948136;29;20118;-92
2021/11/27 20:20:08;;;;;;;198.25;96.10;;;5.90;99.90;;;;;;4948955;29;20488;-93
2021/11/27 20:22:35;;;;;;;147.93;72.72;;;5.90;99.90;;;;;;4934344;29;20063;-93
2021/11/27 20:28:23;;;;;;;295.40;108.65;;;5.80;99.90;;;;;;4966096;29;20122;-92
2021/11/27 20:30:49;;;;;;;212.55;88.47;;;5.70;99.90;;;;;;4944152;29;20028;-93
2021/11/27 20:33:16;;;;;;;182.77;77.45;;;5.60;99.90;;;;;;4947872;29;20023;-94
2021/11/27 20:35:42;;;;;;;153.02;75.38;;;5.60;99.90;;;;;;4943852;29;20023;-92
2021/11/27 20:38:08;;;;;;;174.52;76.78;;;5.60;99.90;;;;;;4944826;29;20038;-93
2021/11/27 20:40:35;;;;;;;223.70;85.72;;;5.70;99.90;;;;;;4944516;29;20031;-92
2021/11/27 20:43:01;;;;;;;175.30;75.45;;;5.70;99.90;;;;;;4953681;29;20059;-93
2021/11/27 20:45:28;;;;;;;233.98;81.65;;;5.80;99.90;;;;;;4945973;29;20126;-94
2021/11/27 20:47:54;;;;;;;315.90;85.85;;;5.90;99.90;;;;;;4931679;29;20054;-94
2021/11/27 20:50:20;;;;;;;214.88;85.53;;;6.00;99.90;;;;;;4944991;29;20470;-92
2021/11/27 20:52:46;;;;;;;224.65;91.07;;;6.00;99.90;;;;;;4942967;29;20190;-92
2021/11/27 20:55:12;;;;;;;179.85;79.30;;;6.00;99.90;;;;;;4944554;29;20027;-94
2021/11/27 20:57:39;;;;;;;242.85;90.15;;;6.00;99.90;;;;;;4944760;29;20499;-92
2021/11/27 21:00:07;;;;;;;171.30;78.82;;;6.00;99.90;;;;;;4943562;29;20441;-93
2021/11/27 21:02:33;;;;;;;236.23;82.47;;;6.00;99.90;;;;;;4942753;29;20057;-92
2021/11/27 21:04:59;;;;;;;255.73;88.63;;;5.90;99.90;;;;;;4942225;29;20032;-92
2021/11/27 21:07:25;;;;;;;235.20;88.15;;;5.90;99.90;;;;;;4942314;29;20027;-91
2021/11/27 21:09:51;;;;;;;225.10;85.72;;;5.90;99.90;;;;;;4942156;29;20078;-92
2021/11/27 21:12:16;;;;;;;181.68;79.78;;;5.90;99.90;;;;;;4941673;28;20055;-91
2021/11/27 21:14:44;;;;;;;182.45;76.57;;;5.80;99.90;;;;;;4941728;29;20030;-91
2021/11/27 21:17:10;;;;;;;190.98;79.15;;;5.80;99.90;;;;;;4941472;29;20114;-91
2021/11/27 21:19:37;;;;;;;184.05;75.50;;;5.80;99.90;;;;;;4940870;29;20126;-90
2021/11/27 21:22:03;;;;;;;136.38;65.53;;;5.80;99.90;;;;;;4941439;29;20050;-91
2021/11/27 21:24:29;;;;;;;176.45;71.25;;;5.80;99.90;;;;;;4941045;28;20027;-91
2021/11/27 21:26:55;;;;;;;137.52;64.13;;;5.80;99.90;;;;;;4941120;29;20027;-91
2021/11/27 21:29:20;;;;;;;168.00;73.65;;;5.80;99.90;;;;;;4941286;29;20117;-91
2021/11/27 21:31:46;;;;;;;153.90;70.38;;;5.70;99.90;;;;;;4941824;29;20035;-91
2021/11/27 21:34:12;;;;;;;215.88;79.50;;;5.70;99.90;;;;;;4941223;29;20497;-91
2021/11/27 21:36:38;;;;;;;250.90;89.03;;;5.70;99.90;;;;;;4941419;29;20398;-92
2021/11/27 21:39:04;;;;;;;247.77;85.65;;;5.70;99.90;;;;;;4942589;29;20034;-91
2021/11/27 21:41:30;;;;;;;156.85;72.32;;;5.60;99.90;;;;;;4940943;29;20024;-91
2021/11/27 21:43:56;;;;;;;143.77;73.80;;;5.60;99.90;;;;;;4941147;29;20074;-91
2021/11/27 21:46:22;;;;;;;175.45;71.50;;;5.60;99.90;;;;;;4940944;29;20111;-90
2021/11/27 21:48:49;;;;;;;180.68;76.72;;;5.50;99.90;;;;;;4925346;29;20050;-92
2021/11/27 21:51:14;;;;;;;156.50;76.72;;;5.50;99.90;;;;;;4941057;29;20030;-92
2021/11/27 21:53:40;;;;;;;143.38;62.53;;;5.50;99.90;;;;;;4941295;29;20050;-91
2021/11/27 21:56:07;;;;;;;170.18;71.75;;;5.50;99.90;;;;;;4941124;29;20470;-92
2021/11/27 21:58:33;;;;;;;178.35;66.85;;;5.50;99.90;;;;;;4940837;29;20059;-93
2021/11/27 22:00:59;;;;;;;171.40;64.60;;;5.50;99.90;;;;;;4940875;29;20038;-92
2021/11/27 22:03:25;;;;;;;130.13;57.60;;;5.50;99.90;;;;;;4941178;29;20489;-91
2021/11/27 22:05:50;;;;;;;131.23;59.45;;;5.50;99.90;;;;;;4940705;29;20031;-91
2021/11/27 22:08:16;;;;;;;202.75;64.30;;;5.50;99.90;;;;;;4929097;29;20027;-91
2021/11/27 22:10:43;;;;;;;123.20;53.97;;;5.40;99.90;;;;;;4924534;29;20109;-92
2021/11/27 22:13:10;;;;;;;295.98;71.45;;;5.40;99.90;;;;;;4940529;29;20023;-91
2021/11/27 22:15:38;;;;;;;114.90;50.83;;;5.40;99.90;;;;;;4940228;29;20028;-92
2021/11/27 22:18:05;;;;;;;99.25;48.08;;;5.30;99.90;;;;;;4940450;29;20054;-92